sensor_id;sensor_type;location;lat;lon;timestamp;temperature;humidity
60717;DHT22;46566;52.700;6.192;2023-02-15T00:06:00;3.80;99.90
60717;DHT22;46566;52.700;6.192;2023-02-15T00:08:26;3.90;99.90
60717;DHT22;46566;52.700;6.192;2023-02-15T00:10:51;3.70;99.90
60717;DHT22;46566;52.700;6.192;2023-02-15T00:13:17;3.80;99.90
60717;DHT22;46566;52.700;6.192;2023-02-15T00:15:42;3.80;99.90
60717;DHT22;46566;52.700;6.192;2023-02-15T00:32:47;3.60;99.90
60717;DHT22;46566;52.700;6.192;2023-02-15T00:35:13;3.60;99.90
60717;DHT22;46566;52.700;6.192;2023-02-15T00:37:39;3.40;99.90
60717;DHT22;46566;52.700;6.192;2023-02-15T00:40:05;3.30;99.90
60717;DHT22;46566;52.700;6.192;2023-02-15T00:42:31;3.60;99.90
60717;DHT22;46566;52.700;6.192;2023-02-15T00:44:57;3.30;99.90
60717;DHT22;46566;52.700;6.192;2023-02-15T00:47:22;3.40;99.90
60717;DHT22;46566;52.700;6.192;2023-02-15T00:49:49;3.40;99.90
60717;DHT22;46566;52.700;6.192;2023-02-15T00:52:15;3.20;99.90
60717;DHT22;46566;52.700;6.192;2023-02-15T00:54:41;3.30;99.90
60717;DHT22;46566;52.700;6.192;2023-02-15T00:57:06;3.30;99.90
60717;DHT22;46566;52.700;6.192;2023-02-15T00:59:32;3.20;99.90
60717;DHT22;46566;52.700;6.192;2023-02-15T01:01:57;3.30;99.90
60717;DHT22;46566;52.700;6.192;2023-02-15T01:04:23;3.10;99.90
60717;DHT22;46566;52.700;6.192;2023-02-15T01:06:49;3.30;99.90
60717;DHT22;46566;52.700;6.192;2023-02-15T01:51:21;2.80;99.90
60717;DHT22;46566;52.700;6.192;2023-02-15T01:53:54;2.80;99.90
60717;DHT22;46566;52.700;6.192;2023-02-15T01:56:24;2.80;99.90
60717;DHT22;46566;52.700;6.192;2023-02-15T01:58:53;2.70;99.90
60717;DHT22;46566;52.700;6.192;2023-02-15T02:01:20;2.70;99.90
60717;DHT22;46566;52.700;6.192;2023-02-15T02:04:00;2.70;99.90
60717;DHT22;46566;52.700;6.192;2023-02-15T02:06:29;2.70;99.90
60717;DHT22;46566;52.700;6.192;2023-02-15T02:08:56;2.70;99.90
60717;DHT22;46566;52.700;6.192;2023-02-15T02:11:22;2.60;99.90
60717;DHT22;46566;52.700;6.192;2023-02-15T02:13:48;2.60;99.90
60717;DHT22;46566;52.700;6.192;2023-02-15T02:16:25;2.60;99.90
60717;DHT22;46566;52.700;6.192;2023-02-15T02:19:22;2.60;99.90
60717;DHT22;46566;52.700;6.192;2023-02-15T02:22:16;2.50;99.90
60717;DHT22;46566;52.700;6.192;2023-02-15T02:25:09;2.50;99.90
60717;DHT22;46566;52.700;6.192;2023-02-15T02:27:44;2.50;99.90
60717;DHT22;46566;52.700;6.192;2023-02-15T02:42:02;2.40;99.90
60717;DHT22;46566;52.700;6.192;2023-02-15T02:47:22;2.40;99.90
60717;DHT22;46566;52.700;6.192;2023-02-15T02:49:56;2.30;99.90
60717;DHT22;46566;52.700;6.192;2023-02-15T02:52:43;2.30;99.90
60717;DHT22;46566;52.700;6.192;2023-02-15T03:00:44;2.30;99.90
60717;DHT22;46566;52.700;6.192;2023-02-15T03:03:13;2.30;99.90
60717;DHT22;46566;52.700;6.192;2023-02-15T03:05:44;2.30;99.90
60717;DHT22;46566;52.700;6.192;2023-02-15T03:08:14;2.30;99.90
60717;DHT22;46566;52.700;6.192;2023-02-15T03:10:48;2.30;99.90
60717;DHT22;46566;52.700;6.192;2023-02-15T03:13:17;2.30;99.90
60717;DHT22;46566;52.700;6.192;2023-02-15T03:15:44;2.30;99.90
60717;DHT22;46566;52.700;6.192;2023-02-15T03:18:37;2.20;99.90
60717;DHT22;46566;52.700;6.192;2023-02-15T03:21:05;2.20;99.90
60717;DHT22;46566;52.700;6.192;2023-02-15T03:23:32;2.20;99.90
60717;DHT22;46566;52.700;6.192;2023-02-15T03:26:02;2.20;99.90
60717;DHT22;46566;52.700;6.192;2023-02-15T03:28:36;2.20;99.90
60717;DHT22;46566;52.700;6.192;2023-02-15T03:31:05;2.20;99.90
60717;DHT22;46566;52.700;6.192;2023-02-15T03:33:33;2.10;99.90
60717;DHT22;46566;52.700;6.192;2023-02-15T03:36:02;2.00;99.90
60717;DHT22;46566;52.700;6.192;2023-02-15T03:38:44;2.00;99.90
60717;DHT22;46566;52.700;6.192;2023-02-15T03:41:14;1.90;99.90
60717;DHT22;46566;52.700;6.192;2023-02-15T03:44:05;1.90;99.90
60717;DHT22;46566;52.700;6.192;2023-02-15T03:46:44;1.90;99.90
60717;DHT22;46566;52.700;6.192;2023-02-15T03:49:24;1.90;99.90
60717;DHT22;46566;52.700;6.192;2023-02-15T03:51:52;1.90;99.90
60717;DHT22;46566;52.700;6.192;2023-02-15T03:54:29;1.90;99.90
60717;DHT22;46566;52.700;6.192;2023-02-15T03:59:58;1.90;99.90
60717;DHT22;46566;52.700;6.192;2023-02-15T04:03:00;1.90;99.90
60717;DHT22;46566;52.700;6.192;2023-02-15T04:05:28;1.80;99.90
60717;DHT22;46566;52.700;6.192;2023-02-15T04:07:53;1.80;99.90
60717;DHT22;46566;52.700;6.192;2023-02-15T04:10:19;1.80;99.90
60717;DHT22;46566;52.700;6.192;2023-02-15T04:13:03;1.80;99.90
60717;DHT22;46566;52.700;6.192;2023-02-15T04:15:28;1.80;99.90
60717;DHT22;46566;52.700;6.192;2023-02-15T04:18:13;1.70;99.90
60717;DHT22;46566;52.700;6.192;2023-02-15T04:20:43;1.70;99.90
60717;DHT22;46566;52.700;6.192;2023-02-15T04:23:28;1.70;99.90
60717;DHT22;46566;52.700;6.192;2023-02-15T04:26:12;1.70;99.90
60717;DHT22;46566;52.700;6.192;2023-02-15T04:28:37;1.70;99.90
60717;DHT22;46566;52.700;6.192;2023-02-15T04:31:03;1.80;99.90
60717;DHT22;46566;52.700;6.192;2023-02-15T04:33:28;1.70;99.90
60717;DHT22;46566;52.700;6.192;2023-02-15T04:35:54;1.80;99.90
60717;DHT22;46566;52.700;6.192;2023-02-15T04:38:20;1.80;99.90
60717;DHT22;46566;52.700;6.192;2023-02-15T04:40:51;1.70;99.90
60717;DHT22;46566;52.700;6.192;2023-02-15T04:43:18;1.80;99.90
60717;DHT22;46566;52.700;6.192;2023-02-15T04:45:51;1.80;99.90
60717;DHT22;46566;52.700;6.192;2023-02-15T04:48:17;1.80;99.90
60717;DHT22;46566;52.700;6.192;2023-02-15T04:50:43;1.80;99.90
60717;DHT22;46566;52.700;6.192;2023-02-15T04:53:10;1.80;99.90
60717;DHT22;46566;52.700;6.192;2023-02-15T04:55:35;1.80;99.90
60717;DHT22;46566;52.700;6.192;2023-02-15T04:58:01;1.80;99.90
60717;DHT22;46566;52.700;6.192;2023-02-15T05:00:27;1.80;99.90
60717;DHT22;46566;52.700;6.192;2023-02-15T05:02:53;1.80;99.90
60717;DHT22;46566;52.700;6.192;2023-02-15T05:05:18;1.80;99.90
60717;DHT22;46566;52.700;6.192;2023-02-15T05:07:44;1.90;99.90
60717;DHT22;46566;52.700;6.192;2023-02-15T05:10:10;1.80;99.90
60717;DHT22;46566;52.700;6.192;2023-02-15T05:12:36;1.90;99.90
60717;DHT22;46566;52.700;6.192;2023-02-15T05:15:01;1.80;99.90
60717;DHT22;46566;52.700;6.192;2023-02-15T05:17:27;1.80;99.90
60717;DHT22;46566;52.700;6.192;2023-02-15T05:19:53;1.80;99.90
60717;DHT22;46566;52.700;6.192;2023-02-15T05:22:18;1.80;99.90
60717;DHT22;46566;52.700;6.192;2023-02-15T05:24:44;1.80;99.90
60717;DHT22;46566;52.700;6.192;2023-02-15T05:27:28;1.70;99.90
60717;DHT22;46566;52.700;6.192;2023-02-15T05:30:13;1.80;99.90
60717;DHT22;46566;52.700;6.192;2023-02-15T05:32:39;1.70;99.90
60717;DHT22;46566;52.700;6.192;2023-02-15T05:35:06;1.70;99.90
60717;DHT22;46566;52.700;6.192;2023-02-15T05:37:33;1.70;99.90
60717;DHT22;46566;52.700;6.192;2023-02-15T05:39:58;1.60;99.90
60717;DHT22;46566;52.700;6.192;2023-02-15T05:42:24;1.60;99.90
60717;DHT22;46566;52.700;6.192;2023-02-15T05:44:50;1.60;99.90
60717;DHT22;46566;52.700;6.192;2023-02-15T05:47:15;1.60;99.90
60717;DHT22;46566;52.700;6.192;2023-02-15T05:49:41;1.60;99.90
60717;DHT22;46566;52.700;6.192;2023-02-15T05:52:06;1.60;99.90
60717;DHT22;46566;52.700;6.192;2023-02-15T05:54:32;1.70;99.90
60717;DHT22;46566;52.700;6.192;2023-02-15T05:56:58;1.70;99.90
60717;DHT22;46566;52.700;6.192;2023-02-15T05:59:23;1.70;99.90
60717;DHT22;46566;52.700;6.192;2023-02-15T06:01:49;1.70;99.90
60717;DHT22;46566;52.700;6.192;2023-02-15T06:04:15;1.70;99.90
60717;DHT22;46566;52.700;6.192;2023-02-15T06:06:40;1.70;99.90
60717;DHT22;46566;52.700;6.192;2023-02-15T06:09:06;1.70;99.90
60717;DHT22;46566;52.700;6.192;2023-02-15T06:11:32;1.70;99.90
60717;DHT22;46566;52.700;6.192;2023-02-15T06:13:57;1.70;99.90
60717;DHT22;46566;52.700;6.192;2023-02-15T06:16:23;1.70;99.90
60717;DHT22;46566;52.700;6.192;2023-02-15T06:18:48;1.70;99.90
60717;DHT22;46566;52.700;6.192;2023-02-15T06:21:14;1.60;99.90
60717;DHT22;46566;52.700;6.192;2023-02-15T06:23:40;1.60;99.90
60717;DHT22;46566;52.700;6.192;2023-02-15T06:26:06;1.60;99.90
60717;DHT22;46566;52.700;6.192;2023-02-15T06:28:31;1.60;99.90
60717;DHT22;46566;52.700;6.192;2023-02-15T06:30:57;1.50;99.90
60717;DHT22;46566;52.700;6.192;2023-02-15T06:33:22;1.50;99.90
60717;DHT22;46566;52.700;6.192;2023-02-15T06:35:48;1.50;99.90
60717;DHT22;46566;52.700;6.192;2023-02-15T06:38:14;1.50;99.90
60717;DHT22;46566;52.700;6.192;2023-02-15T06:40:40;1.50;99.90
60717;DHT22;46566;52.700;6.192;2023-02-15T06:43:05;1.50;99.90
60717;DHT22;46566;52.700;6.192;2023-02-15T06:45:31;1.50;99.90
60717;DHT22;46566;52.700;6.192;2023-02-15T06:47:56;1.50;99.90
60717;DHT22;46566;52.700;6.192;2023-02-15T06:50:22;1.50;99.90
60717;DHT22;46566;52.700;6.192;2023-02-15T06:52:48;1.50;99.90
60717;DHT22;46566;52.700;6.192;2023-02-15T06:55:13;1.50;99.90
60717;DHT22;46566;52.700;6.192;2023-02-15T06:57:39;1.50;99.90
60717;DHT22;46566;52.700;6.192;2023-02-15T07:00:05;1.50;99.90
60717;DHT22;46566;52.700;6.192;2023-02-15T07:02:32;1.50;99.90
60717;DHT22;46566;52.700;6.192;2023-02-15T07:04:57;1.50;99.90
60717;DHT22;46566;52.700;6.192;2023-02-15T07:07:23;1.50;99.90
60717;DHT22;46566;52.700;6.192;2023-02-15T07:09:49;1.50;99.90
60717;DHT22;46566;52.700;6.192;2023-02-15T07:12:14;1.60;99.90
60717;DHT22;46566;52.700;6.192;2023-02-15T07:14:58;1.60;99.90
60717;DHT22;46566;52.700;6.192;2023-02-15T07:17:24;1.60;99.90
60717;DHT22;46566;52.700;6.192;2023-02-15T07:19:54;1.60;99.90
60717;DHT22;46566;52.700;6.192;2023-02-15T07:22:19;1.50;99.90
60717;DHT22;46566;52.700;6.192;2023-02-15T07:24:45;1.60;99.90
60717;DHT22;46566;52.700;6.192;2023-02-15T07:27:11;1.50;99.90
60717;DHT22;46566;52.700;6.192;2023-02-15T07:29:36;1.50;99.90
60717;DHT22;46566;52.700;6.192;2023-02-15T07:32:02;1.60;99.90
60717;DHT22;46566;52.700;6.192;2023-02-15T07:34:28;1.60;99.90
60717;DHT22;46566;52.700;6.192;2023-02-15T07:36:53;1.60;99.90
60717;DHT22;46566;52.700;6.192;2023-02-15T07:39:19;1.60;99.90
60717;DHT22;46566;52.700;6.192;2023-02-15T07:41:45;1.60;99.90
60717;DHT22;46566;52.700;6.192;2023-02-15T07:44:13;1.70;99.90
60717;DHT22;46566;52.700;6.192;2023-02-15T07:46:39;1.70;99.90
60717;DHT22;46566;52.700;6.192;2023-02-15T07:49:04;1.70;99.90
60717;DHT22;46566;52.700;6.192;2023-02-15T07:51:30;1.70;99.90
60717;DHT22;46566;52.700;6.192;2023-02-15T07:53:56;1.80;99.90
60717;DHT22;46566;52.700;6.192;2023-02-15T07:56:21;1.80;99.90
60717;DHT22;46566;52.700;6.192;2023-02-15T07:58:47;1.90;99.90
60717;DHT22;46566;52.700;6.192;2023-02-15T08:01:20;1.90;99.90
60717;DHT22;46566;52.700;6.192;2023-02-15T08:03:46;1.90;99.90
60717;DHT22;46566;52.700;6.192;2023-02-15T08:06:12;2.00;99.90
60717;DHT22;46566;52.700;6.192;2023-02-15T08:08:39;2.00;99.90
60717;DHT22;46566;52.700;6.192;2023-02-15T08:11:14;2.00;99.90
60717;DHT22;46566;52.700;6.192;2023-02-15T08:16:35;2.10;99.90
60717;DHT22;46566;52.700;6.192;2023-02-15T08:19:16;2.20;99.90
60717;DHT22;46566;52.700;6.192;2023-02-15T08:21:48;2.30;99.90
60717;DHT22;46566;52.700;6.192;2023-02-15T08:24:17;2.30;99.90
60717;DHT22;46566;52.700;6.192;2023-02-15T08:26:43;2.40;99.90
60717;DHT22;46566;52.700;6.192;2023-02-15T08:29:10;2.50;99.90
60717;DHT22;46566;52.700;6.192;2023-02-15T08:31:37;2.80;99.90
60717;DHT22;46566;52.700;6.192;2023-02-15T08:34:03;3.40;99.90
60717;DHT22;46566;52.700;6.192;2023-02-15T08:36:30;4.10;99.90
60717;DHT22;46566;52.700;6.192;2023-02-15T08:38:58;4.80;99.90
60717;DHT22;46566;52.700;6.192;2023-02-15T08:41:29;5.40;99.90
60717;DHT22;46566;52.700;6.192;2023-02-15T08:43:56;5.90;99.90
60717;DHT22;46566;52.700;6.192;2023-02-15T08:46:24;6.40;99.90
60717;DHT22;46566;52.700;6.192;2023-02-15T08:48:51;6.90;99.90
60717;DHT22;46566;52.700;6.192;2023-02-15T08:51:39;7.20;99.90
60717;DHT22;46566;52.700;6.192;2023-02-15T08:54:10;7.20;99.90
60717;DHT22;46566;52.700;6.192;2023-02-15T08:56:39;7.00;99.90
60717;DHT22;46566;52.700;6.192;2023-02-15T08:59:21;6.60;99.90
60717;DHT22;46566;52.700;6.192;2023-02-15T09:01:48;6.20;99.90
60717;DHT22;46566;52.700;6.192;2023-02-15T09:04:15;5.90;99.90
60717;DHT22;46566;52.700;6.192;2023-02-15T09:06:42;5.70;99.90
60717;DHT22;46566;52.700;6.192;2023-02-15T09:09:34;5.50;99.90
60717;DHT22;46566;52.700;6.192;2023-02-15T09:11:59;5.40;99.90
60717;DHT22;46566;52.700;6.192;2023-02-15T09:14:26;5.30;99.90
60717;DHT22;46566;52.700;6.192;2023-02-15T09:16:52;5.20;99.90
60717;DHT22;46566;52.700;6.192;2023-02-15T09:19:35;5.10;99.90
60717;DHT22;46566;52.700;6.192;2023-02-15T09:22:00;5.20;99.90
60717;DHT22;46566;52.700;6.192;2023-02-15T09:24:26;5.20;99.90
60717;DHT22;46566;52.700;6.192;2023-02-15T09:26:52;5.30;99.90
60717;DHT22;46566;52.700;6.192;2023-02-15T09:29:18;5.30;99.90
60717;DHT22;46566;52.700;6.192;2023-02-15T09:32:09;5.40;99.90
60717;DHT22;46566;52.700;6.192;2023-02-15T09:34:38;5.50;99.90
60717;DHT22;46566;52.700;6.192;2023-02-15T09:37:05;5.50;99.90
60717;DHT22;46566;52.700;6.192;2023-02-15T09:39:31;5.60;99.90
60717;DHT22;46566;52.700;6.192;2023-02-15T09:47:30;5.80;99.90
60717;DHT22;46566;52.700;6.192;2023-02-15T09:53:07;5.90;99.90
60717;DHT22;46566;52.700;6.192;2023-02-15T09:59:04;6.20;99.90
60717;DHT22;46566;52.700;6.192;2023-02-15T10:07:13;6.60;99.90
60717;DHT22;46566;52.700;6.192;2023-02-15T10:27:46;7.40;99.90
60717;DHT22;46566;52.700;6.192;2023-02-15T10:33:04;7.60;99.90
60717;DHT22;46566;52.700;6.192;2023-02-15T10:41:24;8.10;99.90
60717;DHT22;46566;52.700;6.192;2023-02-15T11:01:25;9.00;99.90
60717;DHT22;46566;52.700;6.192;2023-02-15T11:07:01;9.10;99.90
60717;DHT22;46566;52.700;6.192;2023-02-15T11:12:27;9.30;99.90
60717;DHT22;46566;52.700;6.192;2023-02-15T11:15:04;9.40;99.90
60717;DHT22;46566;52.700;6.192;2023-02-15T11:17:58;9.50;99.90
60717;DHT22;46566;52.700;6.192;2023-02-15T11:20:31;9.60;99.90
60717;DHT22;46566;52.700;6.192;2023-02-15T11:23:06;9.70;99.90
60717;DHT22;46566;52.700;6.192;2023-02-15T11:26:00;9.90;99.90
60717;DHT22;46566;52.700;6.192;2023-02-15T11:28:34;10.00;99.90
60717;DHT22;46566;52.700;6.192;2023-02-15T11:31:23;10.10;99.90
60717;DHT22;46566;52.700;6.192;2023-02-15T11:33:58;10.30;99.90
60717;DHT22;46566;52.700;6.192;2023-02-15T11:36:27;10.40;99.90
60717;DHT22;46566;52.700;6.192;2023-02-15T11:39:16;10.40;99.90
60717;DHT22;46566;52.700;6.192;2023-02-15T11:41:49;10.40;99.90
60717;DHT22;46566;52.700;6.192;2023-02-15T11:44:27;10.50;99.90
60717;DHT22;46566;52.700;6.192;2023-02-15T11:47:23;10.60;99.90
60717;DHT22;46566;52.700;6.192;2023-02-15T11:49:49;10.60;99.90
60717;DHT22;46566;52.700;6.192;2023-02-15T11:52:16;10.70;99.90
60717;DHT22;46566;52.700;6.192;2023-02-15T11:55:02;10.80;99.90
60717;DHT22;46566;52.700;6.192;2023-02-15T11:57:30;11.10;99.90
60717;DHT22;46566;52.700;6.192;2023-02-15T12:00:13;11.40;99.90
60717;DHT22;46566;52.700;6.192;2023-02-15T12:05:42;12.00;99.90
60717;DHT22;46566;52.700;6.192;2023-02-15T12:08:38;12.20;99.90
60717;DHT22;46566;52.700;6.192;2023-02-15T12:11:11;12.40;99.90
60717;DHT22;46566;52.700;6.192;2023-02-15T12:14:12;12.40;99.90
60717;DHT22;46566;52.700;6.192;2023-02-15T12:16:45;12.30;99.90
60717;DHT22;46566;52.700;6.192;2023-02-15T12:22:35;12.20;99.90
60717;DHT22;46566;52.700;6.192;2023-02-15T12:27:55;12.20;99.90
60717;DHT22;46566;52.700;6.192;2023-02-15T12:30:31;12.10;99.90
60717;DHT22;46566;52.700;6.192;2023-02-15T12:32:58;12.00;99.90
60717;DHT22;46566;52.700;6.192;2023-02-15T12:35:46;12.10;99.90
60717;DHT22;46566;52.700;6.192;2023-02-15T12:41:23;12.00;99.90
60717;DHT22;46566;52.700;6.192;2023-02-15T12:44:04;12.00;99.90
60717;DHT22;46566;52.700;6.192;2023-02-15T12:46:30;12.00;99.90
60717;DHT22;46566;52.700;6.192;2023-02-15T12:49:19;12.00;99.90
60717;DHT22;46566;52.700;6.192;2023-02-15T12:51:54;11.90;99.90
60717;DHT22;46566;52.700;6.192;2023-02-15T12:54:43;11.80;99.90
60717;DHT22;46566;52.700;6.192;2023-02-15T12:57:15;11.80;99.90
60717;DHT22;46566;52.700;6.192;2023-02-15T13:00:00;11.70;99.90
60717;DHT22;46566;52.700;6.192;2023-02-15T13:02:56;11.70;99.90
60717;DHT22;46566;52.700;6.192;2023-02-15T13:05:37;11.60;99.90
60717;DHT22;46566;52.700;6.192;2023-02-15T13:08:32;11.40;99.90
60717;DHT22;46566;52.700;6.192;2023-02-15T13:11:07;11.20;99.90
60717;DHT22;46566;52.700;6.192;2023-02-15T13:14:02;11.20;99.90
60717;DHT22;46566;52.700;6.192;2023-02-15T13:16:37;11.10;99.90
60717;DHT22;46566;52.700;6.192;2023-02-15T13:19:11;11.10;99.90
60717;DHT22;46566;52.700;6.192;2023-02-15T13:21:49;11.10;99.90
60717;DHT22;46566;52.700;6.192;2023-02-15T13:24:36;11.10;99.90
60717;DHT22;46566;52.700;6.192;2023-02-15T13:27:03;11.10;99.90
60717;DHT22;46566;52.700;6.192;2023-02-15T13:32:28;11.20;99.90
60717;DHT22;46566;52.700;6.192;2023-02-15T13:34:58;11.10;99.90
60717;DHT22;46566;52.700;6.192;2023-02-15T13:46:37;11.40;99.90
60717;DHT22;46566;52.700;6.192;2023-02-15T13:49:12;11.50;99.90
60717;DHT22;46566;52.700;6.192;2023-02-15T14:04:10;11.90;99.90
60717;DHT22;46566;52.700;6.192;2023-02-15T14:07:15;11.90;99.90
60717;DHT22;46566;52.700;6.192;2023-02-15T14:21:10;11.70;99.90
60717;DHT22;46566;52.700;6.192;2023-02-15T14:26:49;11.70;99.90
60717;DHT22;46566;52.700;6.192;2023-02-15T14:29:51;11.70;99.90
60717;DHT22;46566;52.700;6.192;2023-02-15T14:35:33;11.60;99.90
60717;DHT22;46566;52.700;6.192;2023-02-15T14:40:59;11.60;99.90
60717;DHT22;46566;52.700;6.192;2023-02-15T14:46:34;11.60;99.90
60717;DHT22;46566;52.700;6.192;2023-02-15T14:49:52;11.60;99.90
60717;DHT22;46566;52.700;6.192;2023-02-15T14:52:10;11.50;99.90
60717;DHT22;46566;52.700;6.192;2023-02-15T14:59:54;11.50;99.90
60717;DHT22;46566;52.700;6.192;2023-02-15T15:07:54;11.50;99.90
60717;DHT22;46566;52.700;6.192;2023-02-15T15:12:53;11.40;99.90
60717;DHT22;46566;52.700;6.192;2023-02-15T15:15:45;11.40;99.90
60717;DHT22;46566;52.700;6.192;2023-02-15T15:18:43;11.40;99.90
60717;DHT22;46566;52.700;6.192;2023-02-15T20:24:09;7.60;99.90
60717;DHT22;46566;52.700;6.192;2023-02-15T20:26:37;7.50;99.90
60717;DHT22;46566;52.700;6.192;2023-02-15T20:29:03;7.50;99.90
60717;DHT22;46566;52.700;6.192;2023-02-15T20:31:29;7.50;99.90
60717;DHT22;46566;52.700;6.192;2023-02-15T20:33:57;7.50;99.90
60717;DHT22;46566;52.700;6.192;2023-02-15T20:36:23;7.50;99.90
60717;DHT22;46566;52.700;6.192;2023-02-15T20:38:49;7.50;99.90
60717;DHT22;46566;52.700;6.192;2023-02-15T20:41:17;7.50;99.90
60717;DHT22;46566;52.700;6.192;2023-02-15T20:44:26;7.50;99.90
60717;DHT22;46566;52.700;6.192;2023-02-15T20:46:55;7.40;99.90
60717;DHT22;46566;52.700;6.192;2023-02-15T20:49:22;7.40;99.90
60717;DHT22;46566;52.700;6.192;2023-02-15T20:51:49;7.40;99.90
60717;DHT22;46566;52.700;6.192;2023-02-15T20:54:18;7.30;99.90
60717;DHT22;46566;52.700;6.192;2023-02-15T20:56:44;7.30;99.90
60717;DHT22;46566;52.700;6.192;2023-02-15T20:59:21;7.30;99.90
60717;DHT22;46566;52.700;6.192;2023-02-15T21:01:53;7.30;99.90
60717;DHT22;46566;52.700;6.192;2023-02-15T21:04:23;7.30;99.90
60717;DHT22;46566;52.700;6.192;2023-02-15T21:06:50;7.30;99.90
60717;DHT22;46566;52.700;6.192;2023-02-15T21:09:16;7.20;99.90
60717;DHT22;46566;52.700;6.192;2023-02-15T21:11:43;7.20;99.90
60717;DHT22;46566;52.700;6.192;2023-02-15T21:14:18;7.20;99.90
60717;DHT22;46566;52.700;6.192;2023-02-15T21:16:44;7.20;99.90
60717;DHT22;46566;52.700;6.192;2023-02-15T21:19:16;7.20;99.90
60717;DHT22;46566;52.700;6.192;2023-02-15T21:21:42;7.10;99.90
60717;DHT22;46566;52.700;6.192;2023-02-15T21:24:32;7.10;99.90
60717;DHT22;46566;52.700;6.192;2023-02-15T21:27:00;7.10;99.90
60717;DHT22;46566;52.700;6.192;2023-02-15T21:29:28;7.10;99.90
60717;DHT22;46566;52.700;6.192;2023-02-15T21:31:54;7.10;99.90
60717;DHT22;46566;52.700;6.192;2023-02-15T21:34:22;7.10;99.90
60717;DHT22;46566;52.700;6.192;2023-02-15T21:36:54;7.00;99.90
60717;DHT22;46566;52.700;6.192;2023-02-15T21:39:25;7.10;99.90
60717;DHT22;46566;52.700;6.192;2023-02-15T21:41:52;7.00;99.90
60717;DHT22;46566;52.700;6.192;2023-02-15T21:44:37;7.00;99.90
60717;DHT22;46566;52.700;6.192;2023-02-15T21:47:29;7.00;99.90
60717;DHT22;46566;52.700;6.192;2023-02-15T21:50:20;7.10;99.90
60717;DHT22;46566;52.700;6.192;2023-02-15T21:53:08;7.10;99.90
60717;DHT22;46566;52.700;6.192;2023-02-15T21:55:34;7.00;99.90
60717;DHT22;46566;52.700;6.192;2023-02-15T21:58:00;7.10;99.90
60717;DHT22;46566;52.700;6.192;2023-02-15T22:00:27;7.10;99.90
60717;DHT22;46566;52.700;6.192;2023-02-15T22:02:55;7.10;99.90
60717;DHT22;46566;52.700;6.192;2023-02-15T22:05:26;7.10;99.90
60717;DHT22;46566;52.700;6.192;2023-02-15T22:07:52;7.10;99.90
60717;DHT22;46566;52.700;6.192;2023-02-15T22:10:18;7.10;99.90
60717;DHT22;46566;52.700;6.192;2023-02-15T22:12:44;7.10;99.90
60717;DHT22;46566;52.700;6.192;2023-02-15T22:15:20;7.00;99.90
60717;DHT22;46566;52.700;6.192;2023-02-15T22:17:47;7.10;99.90
60717;DHT22;46566;52.700;6.192;2023-02-15T22:20:16;7.00;99.90
60717;DHT22;46566;52.700;6.192;2023-02-15T22:22:41;7.10;99.90
60717;DHT22;46566;52.700;6.192;2023-02-15T22:25:11;7.00;99.90
60717;DHT22;46566;52.700;6.192;2023-02-15T22:27:38;7.00;99.90
60717;DHT22;46566;52.700;6.192;2023-02-15T22:30:24;7.10;99.90
60717;DHT22;46566;52.700;6.192;2023-02-15T22:32:50;7.00;99.90
60717;DHT22;46566;52.700;6.192;2023-02-15T22:35:22;7.00;99.90
60717;DHT22;46566;52.700;6.192;2023-02-15T22:37:48;7.00;99.90
60717;DHT22;46566;52.700;6.192;2023-02-15T22:40:16;6.90;99.90
60717;DHT22;46566;52.700;6.192;2023-02-15T22:42:45;6.90;99.90
60717;DHT22;46566;52.700;6.192;2023-02-15T22:45:20;6.90;99.90
60717;DHT22;46566;52.700;6.192;2023-02-15T22:47:48;6.80;99.90
60717;DHT22;46566;52.700;6.192;2023-02-15T22:50:19;6.70;99.90
60717;DHT22;46566;52.700;6.192;2023-02-15T22:52:45;6.70;99.90
60717;DHT22;46566;52.700;6.192;2023-02-15T22:55:19;6.70;99.90
60717;DHT22;46566;52.700;6.192;2023-02-15T22:57:48;6.70;99.90
60717;DHT22;46566;52.700;6.192;2023-02-15T23:00:17;6.60;99.90
60717;DHT22;46566;52.700;6.192;2023-02-15T23:02:43;6.60;99.90
60717;DHT22;46566;52.700;6.192;2023-02-15T23:05:19;6.60;99.90
60717;DHT22;46566;52.700;6.192;2023-02-15T23:07:46;6.50;99.90
60717;DHT22;46566;52.700;6.192;2023-02-15T23:10:13;6.50;99.90
60717;DHT22;46566;52.700;6.192;2023-02-15T23:12:56;6.40;99.90
60717;DHT22;46566;52.700;6.192;2023-02-15T23:15:42;6.40;99.90
60717;DHT22;46566;52.700;6.192;2023-02-15T23:20:45;6.40;99.90
60717;DHT22;46566;52.700;6.192;2023-02-15T23:23:13;6.40;99.90
60717;DHT22;46566;52.700;6.192;2023-02-15T23:25:40;6.40;99.90
60717;DHT22;46566;52.700;6.192;2023-02-15T23:28:23;6.30;99.90
60717;DHT22;46566;52.700;6.192;2023-02-15T23:30:50;6.30;99.90
60717;DHT22;46566;52.700;6.192;2023-02-15T23:33:18;6.30;99.90
60717;DHT22;46566;52.700;6.192;2023-02-15T23:35:44;6.20;99.90
60717;DHT22;46566;52.700;6.192;2023-02-15T23:38:24;6.20;99.90
60717;DHT22;46566;52.700;6.192;2023-02-15T23:41:00;6.20;99.90
60717;DHT22;46566;52.700;6.192;2023-02-15T23:43:51;6.20;99.90
60717;DHT22;46566;52.700;6.192;2023-02-15T23:46:23;6.10;99.90
60717;DHT22;46566;52.700;6.192;2023-02-15T23:48:49;6.10;99.90
60717;DHT22;46566;52.700;6.192;2023-02-15T23:51:15;6.10;99.90
60717;DHT22;46566;52.700;6.192;2023-02-15T23:53:42;6.10;99.90
60717;DHT22;46566;52.700;6.192;2023-02-15T23:56:11;6.10;99.90
60717;DHT22;46566;52.700;6.192;2023-02-15T23:58:39;6.10;99.90
